sensor_id;sensor_type;location;lat;lon;timestamp;temperature;humidity
31799;DHT22;18374;51.136;3.502;2022-12-07T00:01:44;4.70;99.90
31799;DHT22;18374;51.136;3.502;2022-12-07T00:04:15;4.70;99.90
31799;DHT22;18374;51.136;3.502;2022-12-07T00:06:46;4.60;99.90
31799;DHT22;18374;51.136;3.502;2022-12-07T00:09:17;4.40;99.90
31799;DHT22;18374;51.136;3.502;2022-12-07T00:11:49;4.40;99.90
31799;DHT22;18374;51.136;3.502;2022-12-07T00:14:18;4.30;99.90
31799;DHT22;18374;51.136;3.502;2022-12-07T00:16:49;4.20;99.90
31799;DHT22;18374;51.136;3.502;2022-12-07T00:19:18;4.10;99.90
31799;DHT22;18374;51.136;3.502;2022-12-07T00:21:46;4.20;99.90
31799;DHT22;18374;51.136;3.502;2022-12-07T00:24:13;4.20;99.90
31799;DHT22;18374;51.136;3.502;2022-12-07T00:26:42;4.20;99.90
31799;DHT22;18374;51.136;3.502;2022-12-07T00:29:20;4.20;99.90
31799;DHT22;18374;51.136;3.502;2022-12-07T00:31:48;4.20;99.90
31799;DHT22;18374;51.136;3.502;2022-12-07T00:34:19;4.20;99.90
31799;DHT22;18374;51.136;3.502;2022-12-07T00:36:48;4.10;99.90
31799;DHT22;18374;51.136;3.502;2022-12-07T00:39:17;4.10;99.90
31799;DHT22;18374;51.136;3.502;2022-12-07T00:41:45;4.10;99.90
31799;DHT22;18374;51.136;3.502;2022-12-07T00:44:12;4.00;99.90
31799;DHT22;18374;51.136;3.502;2022-12-07T00:46:40;4.00;99.90
31799;DHT22;18374;51.136;3.502;2022-12-07T00:49:08;4.00;99.90
31799;DHT22;18374;51.136;3.502;2022-12-07T00:51:35;4.00;99.90
31799;DHT22;18374;51.136;3.502;2022-12-07T00:54:03;4.00;99.90
31799;DHT22;18374;51.136;3.502;2022-12-07T00:56:31;4.00;99.90
31799;DHT22;18374;51.136;3.502;2022-12-07T00:59:01;4.10;99.90
31799;DHT22;18374;51.136;3.502;2022-12-07T01:01:35;4.10;99.90
31799;DHT22;18374;51.136;3.502;2022-12-07T01:04:04;4.00;99.90
31799;DHT22;18374;51.136;3.502;2022-12-07T01:06:32;3.90;99.90
31799;DHT22;18374;51.136;3.502;2022-12-07T01:09:00;3.90;99.90
31799;DHT22;18374;51.136;3.502;2022-12-07T01:11:29;4.00;99.90
31799;DHT22;18374;51.136;3.502;2022-12-07T01:13:58;4.00;99.90
31799;DHT22;18374;51.136;3.502;2022-12-07T01:16:28;4.10;99.90
31799;DHT22;18374;51.136;3.502;2022-12-07T01:18:59;4.20;99.90
31799;DHT22;18374;51.136;3.502;2022-12-07T01:21:29;4.30;99.90
31799;DHT22;18374;51.136;3.502;2022-12-07T01:24:04;4.30;99.90
31799;DHT22;18374;51.136;3.502;2022-12-07T01:26:33;4.40;99.90
31799;DHT22;18374;51.136;3.502;2022-12-07T01:29:01;4.40;99.90
31799;DHT22;18374;51.136;3.502;2022-12-07T01:31:29;4.50;99.90
31799;DHT22;18374;51.136;3.502;2022-12-07T01:33:58;4.60;99.90
31799;DHT22;18374;51.136;3.502;2022-12-07T01:36:29;4.60;99.90
31799;DHT22;18374;51.136;3.502;2022-12-07T01:39:00;4.60;99.90
31799;DHT22;18374;51.136;3.502;2022-12-07T01:41:32;4.60;99.90
31799;DHT22;18374;51.136;3.502;2022-12-07T01:44:17;4.70;99.90
31799;DHT22;18374;51.136;3.502;2022-12-07T01:49:36;4.70;99.90
31799;DHT22;18374;51.136;3.502;2022-12-07T01:52:16;4.60;99.90
31799;DHT22;18374;51.136;3.502;2022-12-07T01:54:50;4.60;99.90
31799;DHT22;18374;51.136;3.502;2022-12-07T01:57:21;4.50;99.90
31799;DHT22;18374;51.136;3.502;2022-12-07T01:59:51;4.50;99.90
31799;DHT22;18374;51.136;3.502;2022-12-07T02:02:33;4.40;99.90
31799;DHT22;18374;51.136;3.502;2022-12-07T02:05:04;4.30;99.90
31799;DHT22;18374;51.136;3.502;2022-12-07T02:07:36;4.30;99.90
31799;DHT22;18374;51.136;3.502;2022-12-07T02:10:27;4.30;99.90
31799;DHT22;18374;51.136;3.502;2022-12-07T02:13:04;4.30;99.90
31799;DHT22;18374;51.136;3.502;2022-12-07T02:30:01;3.90;99.90
31799;DHT22;18374;51.136;3.502;2022-12-07T02:33:16;4.00;99.90
31799;DHT22;18374;51.136;3.502;2022-12-07T02:36:21;4.00;99.90
31799;DHT22;18374;51.136;3.502;2022-12-07T02:41:33;4.10;99.90
31799;DHT22;18374;51.136;3.502;2022-12-07T02:44:07;4.10;99.90
31799;DHT22;18374;51.136;3.502;2022-12-07T02:46:43;4.10;99.90
31799;DHT22;18374;51.136;3.502;2022-12-07T02:49:12;4.10;99.90
31799;DHT22;18374;51.136;3.502;2022-12-07T02:51:45;4.10;99.90
31799;DHT22;18374;51.136;3.502;2022-12-07T02:54:16;4.00;99.90
31799;DHT22;18374;51.136;3.502;2022-12-07T02:59:32;4.10;99.90
31799;DHT22;18374;51.136;3.502;2022-12-07T03:14:19;4.00;99.90
31799;DHT22;18374;51.136;3.502;2022-12-07T03:17:18;4.00;99.90
31799;DHT22;18374;51.136;3.502;2022-12-07T03:19:50;4.10;99.90
31799;DHT22;18374;51.136;3.502;2022-12-07T03:22:19;4.10;99.90
31799;DHT22;18374;51.136;3.502;2022-12-07T03:24:52;4.10;99.90
31799;DHT22;18374;51.136;3.502;2022-12-07T03:27:41;4.10;99.90
31799;DHT22;18374;51.136;3.502;2022-12-07T03:30:19;4.10;99.90
31799;DHT22;18374;51.136;3.502;2022-12-07T03:32:50;4.10;99.90
31799;DHT22;18374;51.136;3.502;2022-12-07T03:35:31;4.10;99.90
31799;DHT22;18374;51.136;3.502;2022-12-07T03:40:56;4.00;99.90
31799;DHT22;18374;51.136;3.502;2022-12-07T03:43:30;4.00;99.90
31799;DHT22;18374;51.136;3.502;2022-12-07T03:52:00;3.90;99.90
31799;DHT22;18374;51.136;3.502;2022-12-07T03:54:37;3.90;99.90
31799;DHT22;18374;51.136;3.502;2022-12-07T03:57:12;3.80;99.90
31799;DHT22;18374;51.136;3.502;2022-12-07T03:59:40;3.80;99.90
31799;DHT22;18374;51.136;3.502;2022-12-07T04:02:11;3.80;99.90
31799;DHT22;18374;51.136;3.502;2022-12-07T04:04:41;3.80;99.90
31799;DHT22;18374;51.136;3.502;2022-12-07T04:07:10;3.70;99.90
31799;DHT22;18374;51.136;3.502;2022-12-07T04:09:38;3.70;99.90
31799;DHT22;18374;51.136;3.502;2022-12-07T04:12:06;3.70;99.90
31799;DHT22;18374;51.136;3.502;2022-12-07T04:14:34;3.70;99.90
31799;DHT22;18374;51.136;3.502;2022-12-07T04:17:02;3.70;99.90
31799;DHT22;18374;51.136;3.502;2022-12-07T04:19:32;3.70;99.90
31799;DHT22;18374;51.136;3.502;2022-12-07T04:22:02;3.70;99.90
31799;DHT22;18374;51.136;3.502;2022-12-07T04:24:31;3.80;99.90
31799;DHT22;18374;51.136;3.502;2022-12-07T04:26:59;3.70;99.90
31799;DHT22;18374;51.136;3.502;2022-12-07T04:29:27;3.60;99.90
31799;DHT22;18374;51.136;3.502;2022-12-07T04:31:54;3.60;99.90
31799;DHT22;18374;51.136;3.502;2022-12-07T04:34:22;3.70;99.90
31799;DHT22;18374;51.136;3.502;2022-12-07T04:36:50;3.70;99.90
31799;DHT22;18374;51.136;3.502;2022-12-07T04:39:23;3.70;99.90
31799;DHT22;18374;51.136;3.502;2022-12-07T04:41:55;3.70;99.90
31799;DHT22;18374;51.136;3.502;2022-12-07T04:44:25;3.70;99.90
31799;DHT22;18374;51.136;3.502;2022-12-07T04:46:54;3.80;99.90
31799;DHT22;18374;51.136;3.502;2022-12-07T04:49:23;3.80;99.90
31799;DHT22;18374;51.136;3.502;2022-12-07T04:51:52;3.90;99.90
31799;DHT22;18374;51.136;3.502;2022-12-07T04:54:20;3.90;99.90
31799;DHT22;18374;51.136;3.502;2022-12-07T04:56:48;3.90;99.90
31799;DHT22;18374;51.136;3.502;2022-12-07T04:59:16;3.90;99.90
31799;DHT22;18374;51.136;3.502;2022-12-07T05:01:44;3.90;99.90
31799;DHT22;18374;51.136;3.502;2022-12-07T05:04:13;3.90;99.90
31799;DHT22;18374;51.136;3.502;2022-12-07T05:06:41;3.90;99.90
31799;DHT22;18374;51.136;3.502;2022-12-07T05:09:09;3.90;99.90
31799;DHT22;18374;51.136;3.502;2022-12-07T05:11:36;3.80;99.90
31799;DHT22;18374;51.136;3.502;2022-12-07T05:14:19;3.80;99.90
31799;DHT22;18374;51.136;3.502;2022-12-07T05:16:49;3.80;99.90
31799;DHT22;18374;51.136;3.502;2022-12-07T05:19:18;3.70;99.90
31799;DHT22;18374;51.136;3.502;2022-12-07T05:21:46;3.70;99.90
31799;DHT22;18374;51.136;3.502;2022-12-07T05:24:16;3.80;99.90
31799;DHT22;18374;51.136;3.502;2022-12-07T05:26:44;3.80;99.90
31799;DHT22;18374;51.136;3.502;2022-12-07T05:29:14;3.70;99.90
31799;DHT22;18374;51.136;3.502;2022-12-07T05:31:44;3.70;99.90
31799;DHT22;18374;51.136;3.502;2022-12-07T05:34:12;3.70;99.90
31799;DHT22;18374;51.136;3.502;2022-12-07T05:36:40;3.70;99.90
31799;DHT22;18374;51.136;3.502;2022-12-07T05:39:08;3.60;99.90
31799;DHT22;18374;51.136;3.502;2022-12-07T05:41:36;3.60;99.90
31799;DHT22;18374;51.136;3.502;2022-12-07T05:44:22;3.60;99.90
31799;DHT22;18374;51.136;3.502;2022-12-07T05:46:50;3.60;99.90
31799;DHT22;18374;51.136;3.502;2022-12-07T05:49:17;3.60;99.90
31799;DHT22;18374;51.136;3.502;2022-12-07T05:51:45;3.60;99.90
31799;DHT22;18374;51.136;3.502;2022-12-07T05:54:13;3.60;99.90
31799;DHT22;18374;51.136;3.502;2022-12-07T05:56:40;3.70;99.90
31799;DHT22;18374;51.136;3.502;2022-12-07T05:59:09;3.60;99.90
31799;DHT22;18374;51.136;3.502;2022-12-07T06:02:04;3.60;99.90
31799;DHT22;18374;51.136;3.502;2022-12-07T06:04:36;3.60;99.90
31799;DHT22;18374;51.136;3.502;2022-12-07T06:07:06;3.50;99.90
31799;DHT22;18374;51.136;3.502;2022-12-07T06:09:34;3.40;99.90
31799;DHT22;18374;51.136;3.502;2022-12-07T06:12:03;3.30;99.90
31799;DHT22;18374;51.136;3.502;2022-12-07T06:14:51;3.30;99.90
31799;DHT22;18374;51.136;3.502;2022-12-07T06:17:18;3.30;99.90
31799;DHT22;18374;51.136;3.502;2022-12-07T06:19:46;3.30;99.90
31799;DHT22;18374;51.136;3.502;2022-12-07T06:22:14;3.70;99.90
31799;DHT22;18374;51.136;3.502;2022-12-07T06:24:43;4.00;99.90
31799;DHT22;18374;51.136;3.502;2022-12-07T06:27:11;4.20;99.90
31799;DHT22;18374;51.136;3.502;2022-12-07T06:29:39;4.40;99.90
31799;DHT22;18374;51.136;3.502;2022-12-07T06:32:06;4.50;99.90
31799;DHT22;18374;51.136;3.502;2022-12-07T06:34:34;4.60;99.90
31799;DHT22;18374;51.136;3.502;2022-12-07T06:37:02;4.50;99.90
31799;DHT22;18374;51.136;3.502;2022-12-07T06:39:30;4.50;99.90
31799;DHT22;18374;51.136;3.502;2022-12-07T06:41:58;4.50;99.90
31799;DHT22;18374;51.136;3.502;2022-12-07T06:44:26;4.50;99.90
31799;DHT22;18374;51.136;3.502;2022-12-07T06:46:54;4.40;99.90
31799;DHT22;18374;51.136;3.502;2022-12-07T06:49:41;4.40;99.90
31799;DHT22;18374;51.136;3.502;2022-12-07T06:52:09;4.40;99.90
31799;DHT22;18374;51.136;3.502;2022-12-07T06:54:37;4.30;99.90
31799;DHT22;18374;51.136;3.502;2022-12-07T06:57:04;4.30;99.90
31799;DHT22;18374;51.136;3.502;2022-12-07T06:59:32;4.30;99.90
31799;DHT22;18374;51.136;3.502;2022-12-07T07:02:00;4.30;99.90
31799;DHT22;18374;51.136;3.502;2022-12-07T07:04:27;4.20;99.90
31799;DHT22;18374;51.136;3.502;2022-12-07T07:06:55;4.20;99.90
31799;DHT22;18374;51.136;3.502;2022-12-07T07:09:26;4.30;99.90
31799;DHT22;18374;51.136;3.502;2022-12-07T07:11:54;4.20;99.90
31799;DHT22;18374;51.136;3.502;2022-12-07T07:14:22;4.20;99.90
31799;DHT22;18374;51.136;3.502;2022-12-07T07:16:50;4.20;99.90
31799;DHT22;18374;51.136;3.502;2022-12-07T07:19:17;4.20;99.90
31799;DHT22;18374;51.136;3.502;2022-12-07T07:21:45;4.20;99.90
31799;DHT22;18374;51.136;3.502;2022-12-07T07:24:13;4.20;99.90
31799;DHT22;18374;51.136;3.502;2022-12-07T07:26:41;4.10;99.90
31799;DHT22;18374;51.136;3.502;2022-12-07T07:29:08;4.10;99.90
31799;DHT22;18374;51.136;3.502;2022-12-07T07:31:36;4.10;99.90
31799;DHT22;18374;51.136;3.502;2022-12-07T07:34:04;4.10;99.90
31799;DHT22;18374;51.136;3.502;2022-12-07T07:36:32;4.10;99.90
31799;DHT22;18374;51.136;3.502;2022-12-07T07:39:00;4.10;99.90
31799;DHT22;18374;51.136;3.502;2022-12-07T07:41:28;4.10;99.90
31799;DHT22;18374;51.136;3.502;2022-12-07T07:43:55;4.00;99.90
31799;DHT22;18374;51.136;3.502;2022-12-07T07:46:23;4.00;99.90
31799;DHT22;18374;51.136;3.502;2022-12-07T07:48:51;4.00;99.90
31799;DHT22;18374;51.136;3.502;2022-12-07T07:51:18;3.90;99.90
31799;DHT22;18374;51.136;3.502;2022-12-07T07:53:46;3.90;99.90
31799;DHT22;18374;51.136;3.502;2022-12-07T07:56:14;3.90;99.90
31799;DHT22;18374;51.136;3.502;2022-12-07T07:58:41;3.80;99.90
31799;DHT22;18374;51.136;3.502;2022-12-07T08:01:09;3.70;99.90
31799;DHT22;18374;51.136;3.502;2022-12-07T08:03:37;3.70;99.90
31799;DHT22;18374;51.136;3.502;2022-12-07T08:06:04;3.50;99.90
31799;DHT22;18374;51.136;3.502;2022-12-07T08:08:32;3.50;99.90
31799;DHT22;18374;51.136;3.502;2022-12-07T08:11:00;3.50;99.90
31799;DHT22;18374;51.136;3.502;2022-12-07T08:13:28;3.50;99.90
31799;DHT22;18374;51.136;3.502;2022-12-07T08:15:58;3.60;99.90
31799;DHT22;18374;51.136;3.502;2022-12-07T08:18:26;3.60;99.90
31799;DHT22;18374;51.136;3.502;2022-12-07T08:20:59;3.70;99.90
31799;DHT22;18374;51.136;3.502;2022-12-07T08:23:28;3.80;99.90
31799;DHT22;18374;51.136;3.502;2022-12-07T08:26:08;3.80;99.90
31799;DHT22;18374;51.136;3.502;2022-12-07T08:28:38;3.80;99.90
31799;DHT22;18374;51.136;3.502;2022-12-07T08:31:10;3.90;99.90
31799;DHT22;18374;51.136;3.502;2022-12-07T08:33:39;3.90;99.90
31799;DHT22;18374;51.136;3.502;2022-12-07T08:36:09;4.00;99.90
31799;DHT22;18374;51.136;3.502;2022-12-07T08:38:39;4.10;99.90
31799;DHT22;18374;51.136;3.502;2022-12-07T08:41:22;4.10;99.90
31799;DHT22;18374;51.136;3.502;2022-12-07T08:43:51;4.20;99.90
31799;DHT22;18374;51.136;3.502;2022-12-07T08:49:11;4.20;99.90
31799;DHT22;18374;51.136;3.502;2022-12-07T08:51:41;4.10;99.90
31799;DHT22;18374;51.136;3.502;2022-12-07T08:54:11;4.10;99.90
31799;DHT22;18374;51.136;3.502;2022-12-07T08:56:42;4.10;99.90
31799;DHT22;18374;51.136;3.502;2022-12-07T08:59:13;4.20;99.90
31799;DHT22;18374;51.136;3.502;2022-12-07T09:01:42;4.30;99.90
31799;DHT22;18374;51.136;3.502;2022-12-07T09:04:10;4.30;99.90
31799;DHT22;18374;51.136;3.502;2022-12-07T09:06:38;4.30;99.90
31799;DHT22;18374;51.136;3.502;2022-12-07T09:09:06;4.30;99.90
31799;DHT22;18374;51.136;3.502;2022-12-07T09:11:35;4.30;99.90
31799;DHT22;18374;51.136;3.502;2022-12-07T09:14:02;4.40;99.90
31799;DHT22;18374;51.136;3.502;2022-12-07T09:16:30;4.30;99.90
31799;DHT22;18374;51.136;3.502;2022-12-07T09:18:58;4.40;99.90
31799;DHT22;18374;51.136;3.502;2022-12-07T09:21:26;4.40;99.90
31799;DHT22;18374;51.136;3.502;2022-12-07T09:23:53;4.50;99.90
31799;DHT22;18374;51.136;3.502;2022-12-07T09:26:21;4.50;99.90
31799;DHT22;18374;51.136;3.502;2022-12-07T09:28:49;4.50;99.90
31799;DHT22;18374;51.136;3.502;2022-12-07T09:31:17;4.60;99.90
31799;DHT22;18374;51.136;3.502;2022-12-07T09:33:59;4.60;99.90
31799;DHT22;18374;51.136;3.502;2022-12-07T09:36:28;4.70;99.90
31799;DHT22;18374;51.136;3.502;2022-12-07T09:38:56;4.70;99.90
31799;DHT22;18374;51.136;3.502;2022-12-07T09:41:25;4.70;99.90
31799;DHT22;18374;51.136;3.502;2022-12-07T09:44:02;4.90;99.90
31799;DHT22;18374;51.136;3.502;2022-12-07T09:46:36;4.90;99.90
31799;DHT22;18374;51.136;3.502;2022-12-07T09:49:12;5.00;99.90
31799;DHT22;18374;51.136;3.502;2022-12-07T09:51:44;5.00;99.90
31799;DHT22;18374;51.136;3.502;2022-12-07T09:54:14;5.00;99.90
31799;DHT22;18374;51.136;3.502;2022-12-07T09:56:44;5.10;99.90
31799;DHT22;18374;51.136;3.502;2022-12-07T09:59:18;5.10;99.90
31799;DHT22;18374;51.136;3.502;2022-12-07T10:01:48;5.20;99.90
31799;DHT22;18374;51.136;3.502;2022-12-07T10:04:23;5.20;99.90
31799;DHT22;18374;51.136;3.502;2022-12-07T10:06:52;5.20;99.90
31799;DHT22;18374;51.136;3.502;2022-12-07T10:09:21;5.30;99.90
31799;DHT22;18374;51.136;3.502;2022-12-07T10:12:07;5.30;99.90
31799;DHT22;18374;51.136;3.502;2022-12-07T10:14:54;5.40;99.90
31799;DHT22;18374;51.136;3.502;2022-12-07T10:17:41;5.50;99.90
31799;DHT22;18374;51.136;3.502;2022-12-07T10:20:25;5.50;99.90
31799;DHT22;18374;51.136;3.502;2022-12-07T10:23:07;5.70;99.90
31799;DHT22;18374;51.136;3.502;2022-12-07T10:25:41;5.80;99.90
31799;DHT22;18374;51.136;3.502;2022-12-07T10:28:19;5.80;99.90
31799;DHT22;18374;51.136;3.502;2022-12-07T10:30:56;5.70;99.90
31799;DHT22;18374;51.136;3.502;2022-12-07T10:33:38;5.50;99.90
31799;DHT22;18374;51.136;3.502;2022-12-07T10:39:09;5.50;99.90
31799;DHT22;18374;51.136;3.502;2022-12-07T10:42:00;5.50;99.90
31799;DHT22;18374;51.136;3.502;2022-12-07T10:44:31;5.40;99.90
31799;DHT22;18374;51.136;3.502;2022-12-07T10:47:24;5.50;99.90
31799;DHT22;18374;51.136;3.502;2022-12-07T10:53:35;5.60;99.90
31799;DHT22;18374;51.136;3.502;2022-12-07T11:38:36;6.70;99.90
31799;DHT22;18374;51.136;3.502;2022-12-07T11:41:09;6.70;99.90
31799;DHT22;18374;51.136;3.502;2022-12-07T11:43:53;6.70;99.90
31799;DHT22;18374;51.136;3.502;2022-12-07T11:46:27;6.80;99.90
31799;DHT22;18374;51.136;3.502;2022-12-07T11:52:02;6.70;99.90
31799;DHT22;18374;51.136;3.502;2022-12-07T11:54:36;6.70;99.90
31799;DHT22;18374;51.136;3.502;2022-12-07T11:57:18;6.60;99.90
31799;DHT22;18374;51.136;3.502;2022-12-07T11:59:53;6.60;99.90
31799;DHT22;18374;51.136;3.502;2022-12-07T12:02:37;6.60;99.90
31799;DHT22;18374;51.136;3.502;2022-12-07T12:05:22;6.60;99.90
31799;DHT22;18374;51.136;3.502;2022-12-07T12:23:36;6.40;99.90
31799;DHT22;18374;51.136;3.502;2022-12-07T12:26:24;6.40;99.90
31799;DHT22;18374;51.136;3.502;2022-12-07T12:31:39;6.40;99.90
31799;DHT22;18374;51.136;3.502;2022-12-07T12:34:41;6.50;99.90
31799;DHT22;18374;51.136;3.502;2022-12-07T12:37:45;6.60;99.90
31799;DHT22;18374;51.136;3.502;2022-12-07T12:42:45;6.80;99.90
31799;DHT22;18374;51.136;3.502;2022-12-07T12:45:31;6.80;99.90
31799;DHT22;18374;51.136;3.502;2022-12-07T12:48:09;6.90;99.90
31799;DHT22;18374;51.136;3.502;2022-12-07T12:54:12;7.10;99.90
31799;DHT22;18374;51.136;3.502;2022-12-07T13:07:48;6.90;99.90
31799;DHT22;18374;51.136;3.502;2022-12-07T13:18:02;6.70;99.90
31799;DHT22;18374;51.136;3.502;2022-12-07T13:26:36;7.00;99.90
31799;DHT22;18374;51.136;3.502;2022-12-07T13:31:55;7.20;99.90
31799;DHT22;18374;51.136;3.502;2022-12-07T13:34:31;7.30;99.90
31799;DHT22;18374;51.136;3.502;2022-12-07T13:39:50;7.40;99.90
31799;DHT22;18374;51.136;3.502;2022-12-07T13:44:55;7.20;99.90
31799;DHT22;18374;51.136;3.502;2022-12-07T13:50:25;7.10;99.90
31799;DHT22;18374;51.136;3.502;2022-12-07T13:52:56;7.00;99.90
31799;DHT22;18374;51.136;3.502;2022-12-07T13:55:25;6.90;99.90
31799;DHT22;18374;51.136;3.502;2022-12-07T13:57:54;6.80;99.90
31799;DHT22;18374;51.136;3.502;2022-12-07T14:00:25;6.70;99.90
31799;DHT22;18374;51.136;3.502;2022-12-07T14:02:58;6.70;99.90
31799;DHT22;18374;51.136;3.502;2022-12-07T14:06:23;6.70;99.90
31799;DHT22;18374;51.136;3.502;2022-12-07T14:09:15;6.80;99.90
31799;DHT22;18374;51.136;3.502;2022-12-07T14:11:48;6.90;99.90
31799;DHT22;18374;51.136;3.502;2022-12-07T14:14:20;6.90;99.90
31799;DHT22;18374;51.136;3.502;2022-12-07T14:17:16;6.90;99.90
31799;DHT22;18374;51.136;3.502;2022-12-07T14:19:57;6.90;99.90
31799;DHT22;18374;51.136;3.502;2022-12-07T14:22:32;6.90;99.90
31799;DHT22;18374;51.136;3.502;2022-12-07T14:27:54;6.80;99.90
31799;DHT22;18374;51.136;3.502;2022-12-07T14:30:29;6.70;99.90
31799;DHT22;18374;51.136;3.502;2022-12-07T14:33:04;6.60;99.90
31799;DHT22;18374;51.136;3.502;2022-12-07T14:35:32;6.60;99.90
31799;DHT22;18374;51.136;3.502;2022-12-07T14:38:00;6.50;99.90
31799;DHT22;18374;51.136;3.502;2022-12-07T14:40:29;6.40;99.90
31799;DHT22;18374;51.136;3.502;2022-12-07T14:43:02;6.40;99.90
31799;DHT22;18374;51.136;3.502;2022-12-07T14:45:31;6.20;99.90
31799;DHT22;18374;51.136;3.502;2022-12-07T14:47:59;6.20;99.90
31799;DHT22;18374;51.136;3.502;2022-12-07T14:50:52;6.20;99.90
31799;DHT22;18374;51.136;3.502;2022-12-07T14:53:48;6.10;99.90
31799;DHT22;18374;51.136;3.502;2022-12-07T14:56:24;6.00;99.90
31799;DHT22;18374;51.136;3.502;2022-12-07T14:58:52;6.00;99.90
31799;DHT22;18374;51.136;3.502;2022-12-07T15:01:20;5.90;99.90
31799;DHT22;18374;51.136;3.502;2022-12-07T15:03:47;5.80;99.90
31799;DHT22;18374;51.136;3.502;2022-12-07T15:06:17;5.80;99.90
31799;DHT22;18374;51.136;3.502;2022-12-07T15:08:45;5.80;99.90
31799;DHT22;18374;51.136;3.502;2022-12-07T15:11:14;5.70;99.90
31799;DHT22;18374;51.136;3.502;2022-12-07T15:13:42;5.50;99.90
31799;DHT22;18374;51.136;3.502;2022-12-07T15:16:28;5.40;99.90
31799;DHT22;18374;51.136;3.502;2022-12-07T15:19:15;5.30;99.90
31799;DHT22;18374;51.136;3.502;2022-12-07T15:21:59;5.20;99.90
31799;DHT22;18374;51.136;3.502;2022-12-07T15:24:27;5.20;99.90
31799;DHT22;18374;51.136;3.502;2022-12-07T15:26:55;5.20;99.90
31799;DHT22;18374;51.136;3.502;2022-12-07T15:29:22;5.20;99.90
31799;DHT22;18374;51.136;3.502;2022-12-07T15:31:51;5.20;99.90
31799;DHT22;18374;51.136;3.502;2022-12-07T15:34:27;5.20;99.90
31799;DHT22;18374;51.136;3.502;2022-12-07T15:37:04;5.20;99.90
31799;DHT22;18374;51.136;3.502;2022-12-07T15:39:32;5.10;99.90
31799;DHT22;18374;51.136;3.502;2022-12-07T15:41:59;5.00;99.90
31799;DHT22;18374;51.136;3.502;2022-12-07T15:44:27;5.00;99.90
31799;DHT22;18374;51.136;3.502;2022-12-07T15:47:13;4.90;99.90
31799;DHT22;18374;51.136;3.502;2022-12-07T15:49:41;4.80;99.90
31799;DHT22;18374;51.136;3.502;2022-12-07T15:52:09;4.80;99.90
31799;DHT22;18374;51.136;3.502;2022-12-07T15:54:36;4.80;99.90
31799;DHT22;18374;51.136;3.502;2022-12-07T15:57:04;4.80;99.90
31799;DHT22;18374;51.136;3.502;2022-12-07T15:59:32;4.80;99.90
31799;DHT22;18374;51.136;3.502;2022-12-07T16:02:00;4.70;99.90
31799;DHT22;18374;51.136;3.502;2022-12-07T16:04:28;4.70;99.90
31799;DHT22;18374;51.136;3.502;2022-12-07T16:06:59;4.70;99.90
31799;DHT22;18374;51.136;3.502;2022-12-07T16:09:26;4.70;99.90
31799;DHT22;18374;51.136;3.502;2022-12-07T16:11:54;4.70;99.90
31799;DHT22;18374;51.136;3.502;2022-12-07T16:14:22;4.70;99.90
31799;DHT22;18374;51.136;3.502;2022-12-07T16:16:50;4.70;99.90
31799;DHT22;18374;51.136;3.502;2022-12-07T16:19:18;4.70;99.90
31799;DHT22;18374;51.136;3.502;2022-12-07T16:21:45;4.70;99.90
31799;DHT22;18374;51.136;3.502;2022-12-07T16:24:13;4.60;99.90
31799;DHT22;18374;51.136;3.502;2022-12-07T16:26:43;4.60;99.90
31799;DHT22;18374;51.136;3.502;2022-12-07T16:29:18;4.60;99.90
31799;DHT22;18374;51.136;3.502;2022-12-07T16:31:48;4.60;99.90
31799;DHT22;18374;51.136;3.502;2022-12-07T16:34:17;4.60;99.90
31799;DHT22;18374;51.136;3.502;2022-12-07T16:36:45;4.50;99.90
31799;DHT22;18374;51.136;3.502;2022-12-07T16:39:33;4.50;99.90
31799;DHT22;18374;51.136;3.502;2022-12-07T16:42:01;4.50;99.90
31799;DHT22;18374;51.136;3.502;2022-12-07T16:44:29;4.40;99.90
31799;DHT22;18374;51.136;3.502;2022-12-07T16:46:58;4.40;99.90
31799;DHT22;18374;51.136;3.502;2022-12-07T16:49:28;4.30;99.90
31799;DHT22;18374;51.136;3.502;2022-12-07T16:51:56;4.20;99.90
31799;DHT22;18374;51.136;3.502;2022-12-07T16:54:44;4.10;99.90
31799;DHT22;18374;51.136;3.502;2022-12-07T16:57:12;4.20;99.90
31799;DHT22;18374;51.136;3.502;2022-12-07T16:59:48;4.20;99.90
31799;DHT22;18374;51.136;3.502;2022-12-07T17:02:16;4.20;99.90
31799;DHT22;18374;51.136;3.502;2022-12-07T17:04:43;4.30;99.90
31799;DHT22;18374;51.136;3.502;2022-12-07T17:07:11;4.30;99.90
31799;DHT22;18374;51.136;3.502;2022-12-07T17:09:39;4.30;99.90
31799;DHT22;18374;51.136;3.502;2022-12-07T17:12:07;4.30;99.90
31799;DHT22;18374;51.136;3.502;2022-12-07T17:14:35;4.40;99.90
31799;DHT22;18374;51.136;3.502;2022-12-07T17:17:23;4.40;99.90
31799;DHT22;18374;51.136;3.502;2022-12-07T17:19:51;4.30;99.90
31799;DHT22;18374;51.136;3.502;2022-12-07T17:22:18;4.20;99.90
31799;DHT22;18374;51.136;3.502;2022-12-07T17:24:46;4.20;99.90
31799;DHT22;18374;51.136;3.502;2022-12-07T17:27:13;4.20;99.90
31799;DHT22;18374;51.136;3.502;2022-12-07T17:29:41;4.30;99.90
31799;DHT22;18374;51.136;3.502;2022-12-07T17:32:09;4.20;99.90
31799;DHT22;18374;51.136;3.502;2022-12-07T17:34:37;4.10;99.90
31799;DHT22;18374;51.136;3.502;2022-12-07T17:37:04;4.20;99.90
31799;DHT22;18374;51.136;3.502;2022-12-07T17:39:33;4.20;99.90
31799;DHT22;18374;51.136;3.502;2022-12-07T17:42:00;4.10;99.90
31799;DHT22;18374;51.136;3.502;2022-12-07T17:44:47;4.10;99.90
31799;DHT22;18374;51.136;3.502;2022-12-07T17:47:15;4.10;99.90
31799;DHT22;18374;51.136;3.502;2022-12-07T17:49:44;4.10;99.90
31799;DHT22;18374;51.136;3.502;2022-12-07T17:52:13;4.00;99.90
31799;DHT22;18374;51.136;3.502;2022-12-07T17:55:00;4.00;99.90
31799;DHT22;18374;51.136;3.502;2022-12-07T17:57:28;3.90;99.90
31799;DHT22;18374;51.136;3.502;2022-12-07T17:59:56;3.90;99.90
31799;DHT22;18374;51.136;3.502;2022-12-07T18:02:24;3.80;99.90
31799;DHT22;18374;51.136;3.502;2022-12-07T18:04:52;3.80;99.90
31799;DHT22;18374;51.136;3.502;2022-12-07T18:07:20;3.70;99.90
31799;DHT22;18374;51.136;3.502;2022-12-07T18:09:47;3.70;99.90
31799;DHT22;18374;51.136;3.502;2022-12-07T18:12:15;3.80;99.90
31799;DHT22;18374;51.136;3.502;2022-12-07T18:14:43;3.90;99.90
31799;DHT22;18374;51.136;3.502;2022-12-07T18:17:10;4.00;99.90
31799;DHT22;18374;51.136;3.502;2022-12-07T18:19:38;4.10;99.90
31799;DHT22;18374;51.136;3.502;2022-12-07T18:22:05;4.10;99.90
31799;DHT22;18374;51.136;3.502;2022-12-07T18:24:34;4.20;99.90
31799;DHT22;18374;51.136;3.502;2022-12-07T18:27:06;4.30;99.90
31799;DHT22;18374;51.136;3.502;2022-12-07T18:29:34;4.40;99.90
31799;DHT22;18374;51.136;3.502;2022-12-07T18:32:02;4.40;99.90
31799;DHT22;18374;51.136;3.502;2022-12-07T18:34:31;4.40;99.90
31799;DHT22;18374;51.136;3.502;2022-12-07T18:36:59;4.50;99.90
31799;DHT22;18374;51.136;3.502;2022-12-07T18:39:27;4.50;99.90
31799;DHT22;18374;51.136;3.502;2022-12-07T18:42:00;4.50;99.90
31799;DHT22;18374;51.136;3.502;2022-12-07T18:44:28;4.50;99.90
31799;DHT22;18374;51.136;3.502;2022-12-07T18:46:56;4.50;99.90
31799;DHT22;18374;51.136;3.502;2022-12-07T18:49:24;4.50;99.90
31799;DHT22;18374;51.136;3.502;2022-12-07T18:51:51;4.50;99.90
31799;DHT22;18374;51.136;3.502;2022-12-07T18:54:19;4.50;99.90
31799;DHT22;18374;51.136;3.502;2022-12-07T18:56:47;4.50;99.90